createdAt,value
2017-10-24T14:02:26.450Z,14.84
2017-10-24T14:05:04.693Z,15.02
2017-10-24T14:09:44.034Z,14.73
2017-10-24T14:12:18.193Z,14.26
2017-10-24T14:14:52.623Z,14.67
2017-10-24T14:17:24.448Z,14.38
2017-10-24T14:19:55.510Z,14.50
2017-10-24T14:22:28.618Z,14.18
2017-10-24T14:25:00.585Z,14.35
2017-10-24T14:30:20.055Z,14.50
2017-10-24T14:32:52.905Z,14.02
2017-10-24T14:35:25.374Z,14.12
2017-10-24T14:37:57.662Z,14.18
2017-10-24T14:40:35.241Z,14.11
2017-10-24T14:43:07.745Z,14.09
2017-10-24T14:49:13.229Z,14.20
2017-10-24T14:51:43.827Z,14.31
2017-10-24T14:54:15.770Z,14.58
2017-10-24T14:56:47.261Z,14.52
2017-10-24T14:59:16.037Z,14.54
2017-10-24T15:01:46.107Z,14.54
2017-10-24T15:04:16.876Z,14.58
2017-10-24T15:06:46.425Z,14.96
2017-10-24T15:09:16.362Z,14.66
2017-10-24T15:11:45.173Z,14.82
2017-10-24T15:14:17.073Z,15.27
2017-10-24T15:16:45.895Z,15.09
2017-10-24T15:19:14.604Z,15.48
2017-10-24T15:21:45.625Z,14.86
2017-10-24T15:24:16.711Z,14.97
2017-10-24T15:26:47.340Z,14.91
2017-10-24T15:29:16.116Z,14.96
2017-10-24T15:31:47.216Z,14.86
2017-10-24T15:34:19.053Z,14.72
2017-10-24T15:36:47.830Z,14.64
2017-10-24T15:39:22.037Z,14.58
2017-10-24T15:41:51.800Z,14.85
2017-10-24T15:44:23.192Z,14.63
2017-10-24T15:46:53.937Z,14.35
2017-10-24T15:52:57.796Z,14.07
2017-10-24T15:55:27.428Z,14.11
2017-10-24T15:57:58.061Z,14.44
2017-10-24T16:00:27.828Z,14.37
2017-10-24T16:02:57.872Z,14.83
2017-10-24T16:05:27.836Z,14.66
2017-10-24T16:07:57.653Z,14.72
2017-10-24T16:10:26.936Z,14.76
2017-10-24T16:12:59.280Z,15.41
2017-10-24T16:15:28.924Z,15.22
2017-10-24T22:19:48.217Z,15.02
2017-10-24T22:22:17.164Z,15.18
2017-10-24T22:24:46.349Z,15.53
2017-10-24T22:27:15.260Z,15.00
2017-10-24T22:29:44.206Z,15.25
2017-10-24T22:32:14.172Z,15.44
2017-10-24T22:34:43.312Z,15.34
2017-10-24T22:37:13.172Z,15.25
2017-10-24T22:39:43.565Z,15.62
2017-10-24T22:42:13.213Z,15.79
2017-10-24T22:44:42.148Z,15.63
2017-10-24T22:47:12.270Z,15.64
2017-10-24T22:49:42.289Z,15.38
2017-10-24T22:54:50.559Z,15.46
2017-10-24T22:57:20.234Z,15.54
2017-10-24T22:59:50.209Z,15.24
2017-10-24T23:02:19.241Z,15.11
2017-10-24T23:04:52.542Z,15.16
2017-10-24T23:07:25.114Z,15.11
2017-10-24T23:09:56.011Z,15.35
2017-10-24T23:12:26.869Z,15.28
2017-10-24T23:14:57.772Z,14.68
2017-10-24T23:17:26.757Z,15.18
2017-10-24T23:19:57.828Z,15.14
2017-10-24T23:22:27.790Z,15.21
2017-10-24T23:24:57.152Z,14.85
2017-10-24T23:27:26.841Z,14.85
2017-10-24T23:29:55.717Z,14.77
2017-10-24T23:32:24.643Z,14.99
2017-10-24T23:34:54.409Z,15.09
2017-10-24T23:37:24.384Z,15.03
2017-10-24T23:39:53.292Z,14.95
2017-10-24T23:42:22.444Z,14.98
2017-10-24T23:44:52.097Z,15.13
2017-10-24T23:47:21.067Z,14.92
2017-10-24T23:49:50.937Z,14.98
2017-10-24T23:52:20.429Z,15.02
2017-10-24T23:54:49.852Z,15.20
2017-10-24T23:57:19.500Z,15.41
2017-10-24T23:59:48.372Z,15.19
